KDDC/DDC METAR and TAF weather

Enter ICAO airport designator
Station Type Date Time Source
KDDC METAR 2018/12/13 15:26 UTC NOAA

KDDC 131526Z AUTO 36026G38KT 10SM BKN022 03/M03 A3002 RMK AO2 PK WND 35046/1505 T00331028


Station Type Date Time Source
KDDC Decoded METAR 2018/12/13 15:26 UTC NOAA

DODGE CITY REGIONAL AIRPORT, KS, United States (KDDC) 37-46N 99-58W 789M
Dec 13, 2018 - 10:26 AM EST / 2018.12.13 1526 UTC
Wind: from the N (360 degrees) at 30 MPH (26 KT) gusting to 44 MPH (38 KT):0
Visibility: 10 mile(s):0
Sky conditions: mostly cloudy
Temperature: 37.9 F (3.3 C)
Dew Point: 27.0 F (-2.8 C)
Relative Humidity: 64%
Pressure (altimeter): 30.02 in. Hg (1016 hPa)
ob: KDDC 131526Z AUTO 36026G38KT 10SM BKN022 03/M03 A3002 RMK AO2 PK WND 35046/1505 T00331028
cycle: 15

Station Type Date Time Source
KDDC TAF 2018/12/13 12:22 UTC NOAA

TAF KDDC 131120Z 1312/1412 36021G30KT P6SM OVC022 WS020/01055KT
FM131500 35031G44KT P6SM BKN035
FM131800 36035G50KT P6SM BKN050
FM132000 36034G49KT P6SM SCT110
FM140400 35017G25KT P6SM SKC


Example: see airport list